konstantinfo.com alexa rank chart, konstantinfo.com alexa rank daily changes

konstantinfo.com alexa rank chart, konstantinfo.com alexa rank daily changes

konstantinfo.com
Actual rank:
835 857

RANK HISTORY

Date Rank Diff
2018/02/22 835 857 +445 137
2018/02/21 390 720 -592 073
2018/02/20 982 793 +437 264
2018/02/19 545 529 +217 628
2018/02/18 327 901 +110 276
2018/02/17 217 625 +32 318
2018/02/16 185 307 -752 350
2018/02/15 937 657 +561 144
2018/02/14 376 513 -308 438
2018/02/12 684 951 +379 857
2018/02/11 305 094 +118 132
2018/02/10 186 962 -38 235
2018/02/09 225 197 -64 973
2018/02/08 290 170 -365 416
2018/02/07 655 586 +392 864
2018/02/04 262 722 -162 056
2018/02/03 424 778 +96 600
2018/02/02 328 178 +68 348
2018/02/01 259 830 -115 959
2018/01/30 375 789 +28 001
2018/01/29 347 788 -140
2018/01/28 347 928 +1 710
2018/01/27 346 218 +2 807
2018/01/26 343 411 -8 308
2018/01/25 351 719 -5 716
2018/01/24 357 435 +2 695
2018/01/23 354 740 +2 126
2018/01/22 352 614 +7 218
2018/01/21 345 396 +9 349
2018/01/20 336 047 -7 158
2018/01/19 343 205 -11 746
2018/01/18 354 951 -13 049
2018/01/17 368 000 +5 677
2018/01/16 362 323 +11 983
2018/01/15 350 340 -3 192
2018/01/14 353 532 +4 274
2018/01/13 349 258 +391
2018/01/12 348 867 -22 128
2018/01/11 370 995 -4 272
2018/01/10 375 267 +1 012
2018/01/09 374 255 +15 270
2018/01/08 358 985 -2 925
2018/01/07 361 910 +11 582
2018/01/06 350 328 +776
2018/01/05 349 552 -6 734
2018/01/04 356 286 +2 040
2018/01/03 354 246 +1 252
2018/01/02 352 994 +13 053
2018/01/01 339 941 +1 270
2017/12/31 338 671 -3 439
2017/12/30 342 110 -13 053
2017/12/29 355 163 -1 840
2017/12/28 357 003 -11 015
2017/12/27 368 018 +638
2017/12/26 367 380 +4 556
2017/12/25 362 824 +17 357
2017/12/24 345 467

WIDGET FOR YOUR SITE

DOMAINS WITH THE NEAREST RANK

Domain Rank
kineticindia.com 835 852
kingbrand.com 835 853
kingofcarts.net 835 854
kiwicare.com 835 855
knifenetwork.com 835 856
konstantinfo.com 835 857
konukoii.com 835 858
ksah.in 835 859
kwschennai.com 835 860
kyleamathews.github.io 835 861
l0.cm 835 862

DOMAINS WITH THE NEAREST RANK BY TLD .com

Domain Rank
kindapush.com 835 851
kineticindia.com 835 852
kingbrand.com 835 853
kiwicare.com 835 855
knifenetwork.com 835 856
konstantinfo.com 835 857
konukoii.com 835 858
kwschennai.com 835 860
larrywinget.com 835 864
leanhigh.com 835 868
learncamtasia.com 835 869